sensor_id;sensor_type;location;lat;lon;timestamp;pressure;altitude;pressure_sealevel;temperature;humidity
57799;BME280;43626;53.866;30.298;2023-04-22T00:01:41;1019.8;;;10.7;50.6
57799;BME280;43626;53.866;30.298;2023-04-22T00:06:55;1019.8;;;10.6;50.5
57799;BME280;43626;53.866;30.298;2023-04-22T00:11:55;1019.8;;;10.5;50.6
57799;BME280;43626;53.866;30.298;2023-04-22T00:16:17;1019.8;;;10.4;50.8
57799;BME280;43626;53.866;30.298;2023-04-22T00:21:41;1019.8;;;10.4;50.6
57799;BME280;43626;53.866;30.298;2023-04-22T00:26:45;1019.8;;;10.4;50.8
57799;BME280;43626;53.866;30.298;2023-04-22T00:31:09;1019.8;;;10.4;50.8
57799;BME280;43626;53.866;30.298;2023-04-22T00:36:27;1019.9;;;10.3;51.5
57799;BME280;43626;53.866;30.298;2023-04-22T00:41:53;1019.9;;;10.3;53.4
57799;BME280;43626;53.866;30.298;2023-04-22T00:46:21;1019.9;;;10.3;53
57799;BME280;43626;53.866;30.298;2023-04-22T00:51:41;1019.9;;;10.3;52.2
57799;BME280;43626;53.866;30.298;2023-04-22T00:56:51;1019.9;;;10.2;52.3
57799;BME280;43626;53.866;30.298;2023-04-22T01:01:19;1019.9;;;10.2;52
57799;BME280;43626;53.866;30.298;2023-04-22T01:06:55;1019.9;;;10.1;52
57799;BME280;43626;53.866;30.298;2023-04-22T01:11:34;1020;;;10.2;51.7
57799;BME280;43626;53.866;30.298;2023-04-22T01:16:28;1020;;;10.2;51.7
57799;BME280;43626;53.866;30.298;2023-04-22T01:21:45;1019.9;;;10.2;51.5
57799;BME280;43626;53.866;30.298;2023-04-22T01:26:33;1019.9;;;10.2;51.4
57799;BME280;43626;53.866;30.298;2023-04-22T01:31:09;1019.9;;;10.3;51.7
57799;BME280;43626;53.866;30.298;2023-04-22T01:36:39;1020;;;10.2;52.7
57799;BME280;43626;53.866;30.298;2023-04-22T01:41:54;1019.9;;;10.2;52.2
57799;BME280;43626;53.866;30.298;2023-04-22T01:46:29;1019.9;;;10.2;52.2
57799;BME280;43626;53.866;30.298;2023-04-22T01:51:41;1019.9;;;10.2;52.2
57799;BME280;43626;53.866;30.298;2023-04-22T01:56:34;1019.9;;;10.1;52.4
57799;BME280;43626;53.866;30.298;2023-04-22T02:01:55;1019.9;;;10;52.3
57799;BME280;43626;53.866;30.298;2023-04-22T02:06:09;1019.9;;;10;52.3
57799;BME280;43626;53.866;30.298;2023-04-22T02:11:15;1019.9;;;10;52.3
57799;BME280;43626;53.866;30.298;2023-04-22T02:16:39;1019.9;;;10;52.3
57799;BME280;43626;53.866;30.298;2023-04-22T02:21:33;1019.9;;;10;52.4
57799;BME280;43626;53.866;30.298;2023-04-22T02:26:21;1019.9;;;10;52.4
57799;BME280;43626;53.866;30.298;2023-04-22T02:31:45;1019.8;;;10;52.6
57799;BME280;43626;53.866;30.298;2023-04-22T02:36:55;1019.8;;;10;53
57799;BME280;43626;53.866;30.298;2023-04-22T02:41:21;1019.8;;;10;52.5
57799;BME280;43626;53.866;30.298;2023-04-22T02:46:12;1019.9;;;10;52.5
57799;BME280;43626;53.866;30.298;2023-04-22T02:51:43;1019.9;;;10;52.6
57799;BME280;43626;53.866;30.298;2023-04-22T02:56:43;1019.9;;;10.1;52.9
57799;BME280;43626;53.866;30.298;2023-04-22T03:01:55;1019.9;;;10.1;52.9
57799;BME280;43626;53.866;30.298;2023-04-22T03:06:43;1019.9;;;10.2;52.8
57799;BME280;43626;53.866;30.298;2023-04-22T03:11:55;1019.9;;;10.1;52.8
57799;BME280;43626;53.866;30.298;2023-04-22T03:16:54;1020;;;10.2;53.1
57799;BME280;43626;53.866;30.298;2023-04-22T03:21:27;1020;;;10.3;53.2
57799;BME280;43626;53.866;30.298;2023-04-22T03:26:53;1020;;;10.3;53.6
57799;BME280;43626;53.866;30.298;2023-04-22T03:31:45;1020;;;10.4;53.9
57799;BME280;43626;53.866;30.298;2023-04-22T03:36:33;1020;;;10.4;54.2
57799;BME280;43626;53.866;30.298;2023-04-22T03:41:09;1020.1;;;10.4;54.1
57799;BME280;43626;53.866;30.298;2023-04-22T03:46:53;1020.1;;;10.4;54.3
57799;BME280;43626;53.866;30.298;2023-04-22T03:51:33;1020.1;;;10.5;54.4
57799;BME280;43626;53.866;30.298;2023-04-22T03:56:41;1020.1;;;10.6;54.1
57799;BME280;43626;53.866;30.298;2023-04-22T04:01:41;1020.1;;;10.7;54.1
57799;BME280;43626;53.866;30.298;2023-04-22T04:06:21;1020.2;;;10.7;54.1
57799;BME280;43626;53.866;30.298;2023-04-22T04:11:31;1020.1;;;10.8;53.9
57799;BME280;43626;53.866;30.298;2023-04-22T04:16:09;1020.1;;;10.9;53.4
57799;BME280;43626;53.866;30.298;2023-04-22T04:21:21;1020.2;;;11;53.1
57799;BME280;43626;53.866;30.298;2023-04-22T04:26:45;1020.2;;;11;52.7
57799;BME280;43626;53.866;30.298;2023-04-22T04:31:17;1020.3;;;11.1;52.5
57799;BME280;43626;53.866;30.298;2023-04-22T04:36:21;1020.3;;;11.2;52.8
57799;BME280;43626;53.866;30.298;2023-04-22T04:41:39;1020.3;;;11.2;53
57799;BME280;43626;53.866;30.298;2023-04-22T04:46:55;1020.3;;;11.3;53.1
57799;BME280;43626;53.866;30.298;2023-04-22T04:51:18;1020.3;;;11.4;53
57799;BME280;43626;53.866;30.298;2023-04-22T04:56:41;1020.4;;;11.5;52.9
57799;BME280;43626;53.866;30.298;2023-04-22T05:01:09;1020.4;;;11.6;52.5
57799;BME280;43626;53.866;30.298;2023-04-22T05:06:55;1020.4;;;11.7;51.9
57799;BME280;43626;53.866;30.298;2023-04-22T05:11:19;1020.5;;;11.8;51.4
57799;BME280;43626;53.866;30.298;2023-04-22T05:16:21;1020.4;;;11.9;51.3
57799;BME280;43626;53.866;30.298;2023-04-22T05:21:55;1020.4;;;11.9;51.1
57799;BME280;43626;53.866;30.298;2023-04-22T05:26:09;1020.4;;;11.9;51.1
57799;BME280;43626;53.866;30.298;2023-04-22T05:31:21;1020.5;;;11.9;50.7
57799;BME280;43626;53.866;30.298;2023-04-22T05:36:09;1020.4;;;11.9;50
57799;BME280;43626;53.866;30.298;2023-04-22T05:41:53;1020.5;;;12.1;49.5
57799;BME280;43626;53.866;30.298;2023-04-22T05:46:09;1020.5;;;12.2;50
57799;BME280;43626;53.866;30.298;2023-04-22T05:51:55;1020.6;;;12.3;50.2
57799;BME280;43626;53.866;30.298;2023-04-22T05:56:41;1020.6;;;12.4;50.2
57799;BME280;43626;53.866;30.298;2023-04-22T06:01:45;1020.6;;;12.5;50
57799;BME280;43626;53.866;30.298;2023-04-22T06:06:34;1020.7;;;12.5;50.1
57799;BME280;43626;53.866;30.298;2023-04-22T06:11:53;1020.7;;;12.6;50.2
57799;BME280;43626;53.866;30.298;2023-04-22T06:16:56;1020.7;;;12.7;50.2
57799;BME280;43626;53.866;30.298;2023-04-22T06:21:45;1020.7;;;12.9;50.4
57799;BME280;43626;53.866;30.298;2023-04-22T06:26:29;1020.7;;;13;50.5
57799;BME280;43626;53.866;30.298;2023-04-22T06:31:56;1020.7;;;13.1;50.2
57799;BME280;43626;53.866;30.298;2023-04-22T06:36:55;1020.7;;;13.3;50.2
57799;BME280;43626;53.866;30.298;2023-04-22T06:41:22;1020.7;;;13.5;48.4
57799;BME280;43626;53.866;30.298;2023-04-22T06:46:22;1020.7;;;13.7;46.4
57799;BME280;43626;53.866;30.298;2023-04-22T06:51:55;1020.8;;;13.8;45.4
57799;BME280;43626;53.866;30.298;2023-04-22T06:56:21;1020.8;;;14;44.9
57799;BME280;43626;53.866;30.298;2023-04-22T07:01:43;1020.8;;;14.1;44.3
57799;BME280;43626;53.866;30.298;2023-04-22T07:06:24;1020.8;;;14.3;43.7
57799;BME280;43626;53.866;30.298;2023-04-22T07:11:20;1020.8;;;14.5;43.4
57799;BME280;43626;53.866;30.298;2023-04-22T07:16:40;1020.8;;;14.6;44.4
57799;BME280;43626;53.866;30.298;2023-04-22T07:21:34;1020.8;;;14.8;43.9
57799;BME280;43626;53.866;30.298;2023-04-22T07:26:10;1020.8;;;14.8;42.2
57799;BME280;43626;53.866;30.298;2023-04-22T07:31:46;1020.8;;;15;41.5
57799;BME280;43626;53.866;30.298;2023-04-22T07:36:54;1020.8;;;15.1;40.2
57799;BME280;43626;53.866;30.298;2023-04-22T07:41:34;1020.8;;;15.3;40.1
57799;BME280;43626;53.866;30.298;2023-04-22T07:46:40;1020.9;;;15.4;38.6
57799;BME280;43626;53.866;30.298;2023-04-22T07:51:54;1020.9;;;15.6;38.1
57799;BME280;43626;53.866;30.298;2023-04-22T07:56:42;1020.8;;;15.7;37.4
57799;BME280;43626;53.866;30.298;2023-04-22T08:01:10;1020.8;;;16;37.5
57799;BME280;43626;53.866;30.298;2023-04-22T08:06:42;1020.7;;;16.2;37.3
57799;BME280;43626;53.866;30.298;2023-04-22T08:11:54;1020.7;;;16.4;36
57799;BME280;43626;53.866;30.298;2023-04-22T08:16:46;1020.8;;;16.5;35.2
57799;BME280;43626;53.866;30.298;2023-04-22T08:21:10;1020.7;;;16.4;34.5
57799;BME280;43626;53.866;30.298;2023-04-22T08:26:56;1020.7;;;16.4;35.1
57799;BME280;43626;53.866;30.298;2023-04-22T08:31:34;1020.7;;;16.5;34.8
57799;BME280;43626;53.866;30.298;2023-04-22T08:36:22;1020.7;;;16.8;34.8
57799;BME280;43626;53.866;30.298;2023-04-22T08:41:18;1020.7;;;17;34.8
57799;BME280;43626;53.866;30.298;2023-04-22T08:46:54;1020.7;;;17.1;35
57799;BME280;43626;53.866;30.298;2023-04-22T08:51:22;1020.6;;;17.2;34.4
57799;BME280;43626;53.866;30.298;2023-04-22T08:56:42;1020.6;;;17.3;33.9
57799;BME280;43626;53.866;30.298;2023-04-22T09:01:54;1020.6;;;17.3;33.8
57799;BME280;43626;53.866;30.298;2023-04-22T09:06:32;1020.6;;;17.4;32.3
57799;BME280;43626;53.866;30.298;2023-04-22T09:11:20;1020.6;;;17.5;32.4
57799;BME280;43626;53.866;30.298;2023-04-22T09:16:36;1020.6;;;17.5;32.5
57799;BME280;43626;53.866;30.298;2023-04-22T09:21:40;1020.5;;;17.5;32.2
57799;BME280;43626;53.866;30.298;2023-04-22T09:26:46;1020.5;;;17.5;31.6
57799;BME280;43626;53.866;30.298;2023-04-22T09:31:34;1020.5;;;17.4;30.8
57799;BME280;43626;53.866;30.298;2023-04-22T09:36:22;1020.5;;;17;31.1
57799;BME280;43626;53.866;30.298;2023-04-22T09:41:42;1020.4;;;16.8;31.5
57799;BME280;43626;53.866;30.298;2023-04-22T09:46:54;1020.4;;;16.9;31.9
57799;BME280;43626;53.866;30.298;2023-04-22T09:51:28;1020.4;;;17;31.3
57799;BME280;43626;53.866;30.298;2023-04-22T09:56:45;1020.3;;;17;30.9
57799;BME280;43626;53.866;30.298;2023-04-22T10:01:10;1020.3;;;17;30.8
57799;BME280;43626;53.866;30.298;2023-04-22T10:06:56;1020.3;;;17;29.7
57799;BME280;43626;53.866;30.298;2023-04-22T10:11:10;1020.3;;;17.2;29.8
57799;BME280;43626;53.866;30.298;2023-04-22T10:16:40;1020.3;;;17.2;29.2
57799;BME280;43626;53.866;30.298;2023-04-22T10:21:56;1020.3;;;17.1;29
57799;BME280;43626;53.866;30.298;2023-04-22T10:26:37;1020.3;;;17.2;29.5
57799;BME280;43626;53.866;30.298;2023-04-22T10:31:20;1020.3;;;17.2;29.2
57799;BME280;43626;53.866;30.298;2023-04-22T10:36:50;1020.3;;;17.2;29.4
57799;BME280;43626;53.866;30.298;2023-04-22T10:41:36;1020.3;;;17.3;29.5
57799;BME280;43626;53.866;30.298;2023-04-22T10:46:49;1020.3;;;17.4;29.2
57799;BME280;43626;53.866;30.298;2023-04-22T10:51:42;1020.3;;;17.5;29.1
57799;BME280;43626;53.866;30.298;2023-04-22T10:56:58;1020.4;;;17.5;28.9
57799;BME280;43626;53.866;30.298;2023-04-22T11:01:42;1020.3;;;17.4;28.2
57799;BME280;43626;53.866;30.298;2023-04-22T11:06:22;1020.3;;;17.3;28.7
57799;BME280;43626;53.866;30.298;2023-04-22T11:11:44;1020.4;;;17.2;28.8
57799;BME280;43626;53.866;30.298;2023-04-22T11:16:56;1020.3;;;17.1;29.3
57799;BME280;43626;53.866;30.298;2023-04-22T11:21:56;1020.3;;;17.2;29.3
57799;BME280;43626;53.866;30.298;2023-04-22T11:26:42;1020.4;;;17.4;29.1
57799;BME280;43626;53.866;30.298;2023-04-22T11:31:56;1020.3;;;17.4;28.6
57799;BME280;43626;53.866;30.298;2023-04-22T11:36:48;1020.3;;;17.4;28.6
57799;BME280;43626;53.866;30.298;2023-04-22T11:41:10;1020.3;;;17.5;28.9
57799;BME280;43626;53.866;30.298;2023-04-22T11:46:28;1020.3;;;17.6;29.6
57799;BME280;43626;53.866;30.298;2023-04-22T11:51:52;1020.3;;;17.7;30
57799;BME280;43626;53.866;30.298;2023-04-22T11:56:11;1020.3;;;18.1;30.1
57799;BME280;43626;53.866;30.298;2023-04-22T12:01:45;1020.3;;;18.4;28.9
57799;BME280;43626;53.866;30.298;2023-04-22T12:06:58;1020.2;;;18.4;28.7
57799;BME280;43626;53.866;30.298;2023-04-22T12:11:10;1020.3;;;18.2;27.9
57799;BME280;43626;53.866;30.298;2023-04-22T12:16:48;1020.2;;;17.9;27.7
57799;BME280;43626;53.866;30.298;2023-04-22T12:21:10;1020.2;;;17.6;28.2
57799;BME280;43626;53.866;30.298;2023-04-22T12:26:10;1020.2;;;17.5;28.6
57799;BME280;43626;53.866;30.298;2023-04-22T12:31:48;1020.2;;;17.5;28.9
57799;BME280;43626;53.866;30.298;2023-04-22T12:36:10;1020.1;;;17.6;29
57799;BME280;43626;53.866;30.298;2023-04-22T12:41:18;1020.1;;;17.7;29
57799;BME280;43626;53.866;30.298;2023-04-22T12:46:30;1020.1;;;17.6;28.9
57799;BME280;43626;53.866;30.298;2023-04-22T12:51:56;1020;;;17.7;29.1
57799;BME280;43626;53.866;30.298;2023-04-22T12:56:28;1020;;;17.8;29.8
57799;BME280;43626;53.866;30.298;2023-04-22T13:01:22;1020;;;17.9;29.1
57799;BME280;43626;53.866;30.298;2023-04-22T13:06:22;1019.9;;;18.3;28.7
57799;BME280;43626;53.866;30.298;2023-04-22T13:11:56;1019.9;;;18.9;28.2
57799;BME280;43626;53.866;30.298;2023-04-22T13:16:22;1019.9;;;19.3;28
57799;BME280;43626;53.866;30.298;2023-04-22T13:21:10;1019.9;;;19.5;27.8
57799;BME280;43626;53.866;30.298;2023-04-22T13:26:42;1020;;;19.3;27.7
57799;BME280;43626;53.866;30.298;2023-04-22T13:31:10;1020;;;19;27.9
57799;BME280;43626;53.866;30.298;2023-04-22T13:36:28;1020;;;18.8;28
57799;BME280;43626;53.866;30.298;2023-04-22T13:41:30;1020;;;18.6;28.2
57799;BME280;43626;53.866;30.298;2023-04-22T13:46:56;1020;;;18.5;28.9
57799;BME280;43626;53.866;30.298;2023-04-22T13:51:34;1020;;;18.3;28.4
57799;BME280;43626;53.866;30.298;2023-04-22T13:56:46;1020;;;18.2;28.8
57799;BME280;43626;53.866;30.298;2023-04-22T14:01:58;1020;;;18.1;29.6
57799;BME280;43626;53.866;30.298;2023-04-22T14:06:48;1020;;;18.1;30.4
57799;BME280;43626;53.866;30.298;2023-04-22T14:11:34;1020;;;18;29.6
57799;BME280;43626;53.866;30.298;2023-04-22T14:16:36;1020;;;17.9;29.6
57799;BME280;43626;53.866;30.298;2023-04-22T14:21:44;1020.1;;;17.7;30
57799;BME280;43626;53.866;30.298;2023-04-22T14:26:48;1020.1;;;17.5;30.5
57799;BME280;43626;53.866;30.298;2023-04-22T14:31:34;1020.1;;;17.3;31
57799;BME280;43626;53.866;30.298;2023-04-22T14:36:56;1020.1;;;17.4;31.3
57799;BME280;43626;53.866;30.298;2023-04-22T14:41:48;1020.1;;;17.4;31.5
57799;BME280;43626;53.866;30.298;2023-04-22T14:46:34;1020.1;;;17.4;31.8
57799;BME280;43626;53.866;30.298;2023-04-22T14:51:16;1020.1;;;17.4;32
57799;BME280;43626;53.866;30.298;2023-04-22T14:56:56;1020.2;;;17.4;32
57799;BME280;43626;53.866;30.298;2023-04-22T15:01:10;1020.2;;;17.5;32
57799;BME280;43626;53.866;30.298;2023-04-22T15:06:12;1020.2;;;17.5;31.8
57799;BME280;43626;53.866;30.298;2023-04-22T15:11:42;1020.2;;;17.6;31.5
57799;BME280;43626;53.866;30.298;2023-04-22T15:16:20;1020.2;;;17.5;31.5
57799;BME280;43626;53.866;30.298;2023-04-22T15:21:40;1020.2;;;17.5;31.7
57799;BME280;43626;53.866;30.298;2023-04-22T15:26:32;1020.2;;;17.4;31.7
57799;BME280;43626;53.866;30.298;2023-04-22T15:31:10;1020.2;;;17.4;31.8
57799;BME280;43626;53.866;30.298;2023-04-22T15:36:34;1020.3;;;17.4;31.8
57799;BME280;43626;53.866;30.298;2023-04-22T15:41:55;1020.2;;;17.3;31.6
57799;BME280;43626;53.866;30.298;2023-04-22T15:46:10;1020.2;;;17.1;32.2
57799;BME280;43626;53.866;30.298;2023-04-22T15:51:34;1020.3;;;17.1;32.7
57799;BME280;43626;53.866;30.298;2023-04-22T15:56:46;1020.3;;;17.1;33.2
57799;BME280;43626;53.866;30.298;2023-04-22T16:01:44;1020.3;;;17.1;32.9
57799;BME280;43626;53.866;30.298;2023-04-22T16:06:20;1020.3;;;17.1;32.9
57799;BME280;43626;53.866;30.298;2023-04-22T16:11:44;1020.3;;;17.1;33
57799;BME280;43626;53.866;30.298;2023-04-22T16:16:44;1020.3;;;17;33.1
57799;BME280;43626;53.866;30.298;2023-04-22T16:21:56;1020.4;;;17;33.2
57799;BME280;43626;53.866;30.298;2023-04-22T16:26:18;1020.3;;;17;33.2
57799;BME280;43626;53.866;30.298;2023-04-22T16:31:56;1020.4;;;16.9;33.4
57799;BME280;43626;53.866;30.298;2023-04-22T16:36:34;1020.4;;;16.8;33.1
57799;BME280;43626;53.866;30.298;2023-04-22T16:41:10;1020.3;;;16.8;33
57799;BME280;43626;53.866;30.298;2023-04-22T16:46:28;1020.4;;;16.8;33.3
57799;BME280;43626;53.866;30.298;2023-04-22T16:51:54;1020.4;;;16.8;33.5
57799;BME280;43626;53.866;30.298;2023-04-22T16:56:22;1020.5;;;16.8;33.8
57799;BME280;43626;53.866;30.298;2023-04-22T17:01:42;1020.5;;;16.7;33.9
57799;BME280;43626;53.866;30.298;2023-04-22T17:06:54;1020.5;;;16.7;34.1
57799;BME280;43626;53.866;30.298;2023-04-22T17:11:32;1020.5;;;16.7;34.2
57799;BME280;43626;53.866;30.298;2023-04-22T17:16:44;1020.5;;;16.7;34.3
57799;BME280;43626;53.866;30.298;2023-04-22T17:21:10;1020.6;;;16.6;34.6
57799;BME280;43626;53.866;30.298;2023-04-22T17:26:28;1020.7;;;16.6;35.4
57799;BME280;43626;53.866;30.298;2023-04-22T17:31:46;1020.7;;;16.5;36.3
57799;BME280;43626;53.866;30.298;2023-04-22T17:36:34;1020.8;;;16.4;37.2
57799;BME280;43626;53.866;30.298;2023-04-22T17:41:10;1020.8;;;16.3;36.3
57799;BME280;43626;53.866;30.298;2023-04-22T17:46:34;1020.8;;;16.3;36.8
57799;BME280;43626;53.866;30.298;2023-04-22T17:51:56;1020.9;;;16.2;37.2
57799;BME280;43626;53.866;30.298;2023-04-22T17:56:18;1020.9;;;16.2;37.7
57799;BME280;43626;53.866;30.298;2023-04-22T18:01:10;1021;;;16.1;38.4
57799;BME280;43626;53.866;30.298;2023-04-22T18:06:20;1021;;;15.9;38.8
57799;BME280;43626;53.866;30.298;2023-04-22T18:11:56;1021;;;15.9;39.2
57799;BME280;43626;53.866;30.298;2023-04-22T18:16:32;1021;;;15.8;40
57799;BME280;43626;53.866;30.298;2023-04-22T18:21:18;1021;;;15.7;41
57799;BME280;43626;53.866;30.298;2023-04-22T18:26:56;1021.1;;;15.6;42
57799;BME280;43626;53.866;30.298;2023-04-22T18:31:34;1021.1;;;15.5;42.6
57799;BME280;43626;53.866;30.298;2023-04-22T18:36:40;1021.1;;;15.4;43.3
57799;BME280;43626;53.866;30.298;2023-04-22T18:41:28;1021.1;;;15.4;43.8
57799;BME280;43626;53.866;30.298;2023-04-22T18:46:54;1021.1;;;15.4;43.3
57799;BME280;43626;53.866;30.298;2023-04-22T18:51:10;1021.2;;;15.3;43.3
57799;BME280;43626;53.866;30.298;2023-04-22T18:56:54;1021.2;;;15.3;43.5
57799;BME280;43626;53.866;30.298;2023-04-22T19:01:56;1021.2;;;15.2;43.8
57799;BME280;43626;53.866;30.298;2023-04-22T19:06:22;1021.2;;;15.2;44.2
57799;BME280;43626;53.866;30.298;2023-04-22T19:11:32;1021.2;;;15.1;44.9
57799;BME280;43626;53.866;30.298;2023-04-22T19:16:42;1021.3;;;15;45.7
57799;BME280;43626;53.866;30.298;2023-04-22T19:21:54;1021.3;;;15;44.9
57799;BME280;43626;53.866;30.298;2023-04-22T19:26:54;1021.4;;;14.9;45.7
57799;BME280;43626;53.866;30.298;2023-04-22T19:31:28;1021.4;;;14.8;47.5
57799;BME280;43626;53.866;30.298;2023-04-22T19:36:54;1021.4;;;14.8;48.3
57799;BME280;43626;53.866;30.298;2023-04-22T19:41:46;1021.4;;;14.7;48.7
57799;BME280;43626;53.866;30.298;2023-04-22T19:46:20;1021.5;;;14.7;48.9
57799;BME280;43626;53.866;30.298;2023-04-22T19:51:16;1021.5;;;14.6;49.3
57799;BME280;43626;53.866;30.298;2023-04-22T19:56:54;1021.5;;;14.6;49.6
57799;BME280;43626;53.866;30.298;2023-04-22T20:01:34;1021.5;;;14.6;49.5
57799;BME280;43626;53.866;30.298;2023-04-22T20:06:40;1021.5;;;14.5;49.5
57799;BME280;43626;53.866;30.298;2023-04-22T20:11:54;1021.6;;;14.5;49.9
57799;BME280;43626;53.866;30.298;2023-04-22T20:16:32;1021.6;;;14.4;50.6
57799;BME280;43626;53.866;30.298;2023-04-22T20:21:10;1021.6;;;14.4;51.1
57799;BME280;43626;53.866;30.298;2023-04-22T20:26:34;1021.6;;;14.3;52.6
57799;BME280;43626;53.866;30.298;2023-04-22T20:31:20;1021.6;;;14.2;52.9
57799;BME280;43626;53.866;30.298;2023-04-22T20:36:46;1021.6;;;14.1;53.3
57799;BME280;43626;53.866;30.298;2023-04-22T20:41:34;1021.6;;;14.1;53.6
57799;BME280;43626;53.866;30.298;2023-04-22T20:46:10;1021.5;;;14.1;53.4
57799;BME280;43626;53.866;30.298;2023-04-22T20:51:12;1021.5;;;14.1;53
57799;BME280;43626;53.866;30.298;2023-04-22T20:56:56;1021.5;;;14.1;52.7
57799;BME280;43626;53.866;30.298;2023-04-22T21:01:30;1021.5;;;14.1;52.4
57799;BME280;43626;53.866;30.298;2023-04-22T21:06:32;1021.5;;;14.1;52.4
57799;BME280;43626;53.866;30.298;2023-04-22T21:11:32;1021.5;;;14.1;52.6
57799;BME280;43626;53.866;30.298;2023-04-22T21:16:55;1021.6;;;14.1;52.6
57799;BME280;43626;53.866;30.298;2023-04-22T21:21:10;1021.6;;;14.1;53.2
57799;BME280;43626;53.866;30.298;2023-04-22T21:26:16;1021.6;;;14;53.6
57799;BME280;43626;53.866;30.298;2023-04-22T21:31:48;1021.7;;;13.9;54.2
57799;BME280;43626;53.866;30.298;2023-04-22T21:36:34;1021.7;;;13.9;54.5
57799;BME280;43626;53.866;30.298;2023-04-22T21:41:28;1021.7;;;13.8;54.3
57799;BME280;43626;53.866;30.298;2023-04-22T21:46:22;1021.7;;;13.8;53.9
57799;BME280;43626;53.866;30.298;2023-04-22T21:51:54;1021.7;;;13.8;53.6
57799;BME280;43626;53.866;30.298;2023-04-22T21:56:22;1021.7;;;13.8;53.6
57799;BME280;43626;53.866;30.298;2023-04-22T22:01:56;1021.7;;;13.8;53.7
57799;BME280;43626;53.866;30.298;2023-04-22T22:06:54;1021.8;;;13.7;53.9
57799;BME280;43626;53.866;30.298;2023-04-22T22:11:20;1021.8;;;13.7;54.1
57799;BME280;43626;53.866;30.298;2023-04-22T22:16:22;1021.8;;;13.6;54.6
57799;BME280;43626;53.866;30.298;2023-04-22T22:21:44;1021.9;;;13.6;54.7
57799;BME280;43626;53.866;30.298;2023-04-22T22:26:32;1021.9;;;13.5;54.8
57799;BME280;43626;53.866;30.298;2023-04-22T22:31:46;1021.9;;;13.5;54.7
57799;BME280;43626;53.866;30.298;2023-04-22T22:36:44;1021.9;;;13.4;54.6
57799;BME280;43626;53.866;30.298;2023-04-22T22:41:54;1021.9;;;13.4;54.6
57799;BME280;43626;53.866;30.298;2023-04-22T22:46:32;1021.9;;;13.3;54.6
57799;BME280;43626;53.866;30.298;2023-04-22T22:51:34;1021.9;;;13.3;54.7
57799;BME280;43626;53.866;30.298;2023-04-22T22:56:28;1021.9;;;13.3;54.7
57799;BME280;43626;53.866;30.298;2023-04-22T23:01:56;1021.9;;;13.3;54.7
57799;BME280;43626;53.866;30.298;2023-04-22T23:06:22;1021.9;;;13.2;54.8
57799;BME280;43626;53.866;30.298;2023-04-22T23:11:44;1021.9;;;13.1;55.3
57799;BME280;43626;53.866;30.298;2023-04-22T23:16:54;1021.9;;;13.1;55.5
57799;BME280;43626;53.866;30.298;2023-04-22T23:21:40;1022;;;13;55.6
57799;BME280;43626;53.866;30.298;2023-04-22T23:26:32;1022;;;12.9;56.9
57799;BME280;43626;53.866;30.298;2023-04-22T23:31:34;1022;;;12.9;57.8
57799;BME280;43626;53.866;30.298;2023-04-22T23:36:11;1022;;;12.9;57.9
57799;BME280;43626;53.866;30.298;2023-04-22T23:41:46;1022;;;12.9;57.9
57799;BME280;43626;53.866;30.298;2023-04-22T23:46:42;1022;;;12.9;57.9
57799;BME280;43626;53.866;30.298;2023-04-22T23:51:28;1022.1;;;12.8;58
57799;BME280;43626;53.866;30.298;2023-04-22T23:56:12;1022.1;;;12.8;58
